Terminal Aerodrome Forecast
Issued by NWS Cleveland, OH

Home | Current Version | Previous Version | Graphics & Text | Print | Product List | Glossary On
Versions: 1 2 3 4 5 6 7 8 9 10 11 12 13 14 15 16 17 18 19 20 21
000
FTUS41 KCLE 181000 AAA
TAFCAK
TAF AMD
KCAK 181026Z 1810/1906 21005KT P6SM FEW100
     FM181400 29006KT P6SM FEW050 SCT200
     FM181900 36012KT P6SM FEW050 BKN200
     FM190100 06008KT P6SM BKN200=

USA.gov is the U.S. government's official web portal to all federal, state and local government web resources and services.